createdAt,value
2023-04-12T00:00:52.430Z,98431.70
2023-04-12T00:03:39.954Z,98434.54
2023-04-12T00:06:31.894Z,98438.75
2023-04-12T00:09:19.660Z,98441.27
2023-04-12T00:12:07.319Z,98433.63
2023-04-12T00:14:54.601Z,98437.16
2023-04-12T00:17:41.924Z,98434.71
2023-04-12T00:20:29.416Z,98435.16
2023-04-12T00:23:18.105Z,98431.52
2023-04-12T00:26:05.679Z,98430.91
2023-04-12T00:28:52.893Z,98427.86
2023-04-12T00:31:40.178Z,98429.19
2023-04-12T00:34:28.083Z,98428.03
2023-04-12T00:37:15.676Z,98427.86
2023-04-12T00:40:03.268Z,98427.34
2023-04-12T00:42:50.923Z,98426.84
2023-04-12T00:45:38.277Z,98427.23
2023-04-12T00:48:26.906Z,98423.15
2023-04-12T00:51:14.558Z,98423.35
2023-04-12T00:54:03.418Z,98426.72
2023-04-12T00:56:51.468Z,98425.56
2023-04-12T00:59:39.519Z,98422.45
2023-04-12T01:03:30.225Z,98419.58
2023-04-12T01:06:50.429Z,98417.70
2023-04-12T01:10:02.991Z,98416.92
2023-04-12T01:13:13.160Z,98423.06
2023-04-12T01:16:12.317Z,98419.67
2023-04-12T01:19:21.163Z,98421.30
2023-04-12T01:22:22.332Z,98423.60
2023-04-12T01:25:33.796Z,98418.07
2023-04-12T01:28:26.962Z,98416.23
2023-04-12T01:31:15.289Z,98416.08
2023-04-12T01:34:04.369Z,98415.09
2023-04-12T01:36:53.992Z,98414.86
2023-04-12T01:39:41.492Z,98412.87
2023-04-12T01:42:29.001Z,98411.64
2023-04-12T01:45:16.245Z,98406.71
2023-04-12T01:48:11.549Z,98406.92
2023-04-12T01:51:18.237Z,98404.73
2023-04-12T01:54:14.769Z,98402.57
2023-04-12T01:57:04.315Z,98399.95
2023-04-12T01:59:55.283Z,98398.83
2023-04-12T02:02:44.174Z,98401.19
2023-04-12T02:05:34.022Z,98403.53
2023-04-12T02:08:21.403Z,98402.69
2023-04-12T02:11:10.751Z,98400.20
2023-04-12T02:13:58.121Z,98397.55
2023-04-12T02:16:50.090Z,98397.26
2023-04-12T02:19:37.403Z,98395.95
2023-04-12T02:22:25.081Z,98398.81
2023-04-12T02:25:12.760Z,98400.09
2023-04-12T02:28:00.896Z,98399.88
2023-04-12T02:30:48.677Z,98398.88
2023-04-12T02:33:36.250Z,98402.77
2023-04-12T02:36:24.624Z,98402.38
2023-04-12T02:39:12.115Z,98404.95
2023-04-12T02:42:00.861Z,98399.95
2023-04-12T02:44:48.368Z,98400.86
2023-04-12T02:47:37.344Z,98399.60
2023-04-12T02:50:25.748Z,98400.86
2023-04-12T02:53:19.158Z,98402.13
2023-04-12T02:56:12.809Z,98402.85
2023-04-12T02:59:00.192Z,98401.06
2023-04-12T03:01:59.102Z,98401.10
2023-04-12T03:04:54.149Z,98395.21
2023-04-12T03:07:45.754Z,98395.16
2023-04-12T03:10:33.675Z,98393.70
2023-04-12T03:13:23.183Z,98393.88
2023-04-12T03:16:28.976Z,98391.67
2023-04-12T03:19:24.683Z,98392.42
2023-04-12T03:22:14.796Z,98396.54
2023-04-12T03:25:09.209Z,98396.72
2023-04-12T03:28:00.592Z,98400.85
2023-04-12T03:31:00.453Z,98401.13
2023-04-12T03:33:56.270Z,98402.89
2023-04-12T03:36:45.933Z,98400.64
2023-04-12T03:39:47.119Z,98399.69
2023-04-12T03:42:38.475Z,98398.35
2023-04-12T03:45:31.884Z,98397.78
2023-04-12T03:48:21.346Z,98395.27
2023-04-12T03:51:11.692Z,98396.29
2023-04-12T03:54:02.367Z,98396.99
2023-04-12T03:56:50.457Z,98400.56
2023-04-12T03:59:43.373Z,98403.69
2023-04-12T04:02:31.245Z,98400.48
2023-04-12T04:05:19.361Z,98403.55
2023-04-12T04:08:07.604Z,98403.30
2023-04-12T04:11:06.171Z,98401.61
2023-04-12T04:13:58.161Z,98399.90
2023-04-12T04:16:46.354Z,98396.40
2023-04-12T04:19:34.093Z,98394.92
2023-04-12T04:22:22.382Z,98393.49
2023-04-12T04:25:13.616Z,98399.78
2023-04-12T04:28:02.249Z,98408.34
2023-04-12T04:30:51.083Z,98409.69
2023-04-12T04:33:39.687Z,98408.45
2023-04-12T04:36:27.424Z,98406.20
2023-04-12T04:39:16.550Z,98405.40
2023-04-12T04:42:06.005Z,98407.99
2023-04-12T04:45:01.961Z,98408.19
2023-04-12T04:47:50.556Z,98409.26
2023-04-12T04:50:38.058Z,98413.67
2023-04-12T04:53:26.077Z,98407.29
2023-04-12T04:56:14.668Z,98406.09
2023-04-12T04:59:03.010Z,98412.57
2023-04-12T05:01:51.863Z,98413.88
2023-04-12T05:04:39.328Z,98411.30
2023-04-12T05:07:27.310Z,98417.11
2023-04-12T05:10:14.701Z,98414.94
2023-04-12T05:13:02.584Z,98421.36
2023-04-12T05:15:50.515Z,98418.90
2023-04-12T05:18:38.694Z,98423.56
2023-04-12T05:21:26.632Z,98427.30
2023-04-12T05:24:14.620Z,98428.02
2023-04-12T05:27:03.250Z,98427.00
2023-04-12T05:29:50.784Z,98429.25
2023-04-12T05:32:39.031Z,98434.02
2023-04-12T05:35:27.038Z,98431.09
2023-04-12T05:38:18.179Z,98434.69
2023-04-12T05:41:08.384Z,98435.27
2023-04-12T05:43:55.787Z,98434.94
2023-04-12T05:46:44.404Z,98436.74
2023-04-12T05:49:32.065Z,98438.11
2023-04-12T05:52:20.431Z,98443.13
2023-04-12T05:55:08.873Z,98441.90
2023-04-12T05:58:00.719Z,98440.76
2023-04-12T06:00:48.998Z,98446.04
2023-04-12T06:03:41.331Z,98445.90
2023-04-12T06:06:30.931Z,98444.61
2023-04-12T06:09:19.179Z,98439.24
2023-04-12T06:12:06.675Z,98437.69
2023-04-12T06:14:56.465Z,98436.73
2023-04-12T06:17:43.842Z,98437.91
2023-04-12T06:20:31.502Z,98438.55
2023-04-12T06:23:18.926Z,98437.02
2023-04-12T06:26:07.276Z,98433.14
2023-04-12T06:28:54.654Z,98429.08
2023-04-12T06:31:43.176Z,98423.73
2023-04-12T06:34:31.623Z,98418.90
2023-04-12T06:37:23.676Z,98418.81
2023-04-12T06:40:11.929Z,98418.27
2023-04-12T06:42:59.637Z,98415.70
2023-04-12T06:45:46.983Z,98421.17
2023-04-12T06:48:34.659Z,98424.46
2023-04-12T06:51:22.073Z,98425.52
2023-04-12T06:54:09.784Z,98429.63
2023-04-12T06:56:57.115Z,98430.25
2023-04-12T06:59:44.683Z,98426.33
2023-04-12T07:02:32.408Z,98425.38
2023-04-12T07:05:20.484Z,98431.39
2023-04-12T07:08:08.470Z,98432.13
2023-04-12T07:10:55.960Z,98430.95
2023-04-12T07:13:43.224Z,98429.95
2023-04-12T07:16:31.975Z,98427.03
2023-04-12T07:19:19.255Z,98429.86
2023-04-12T07:22:07.002Z,98423.89
2023-04-12T07:24:54.697Z,98429.83
2023-04-12T07:27:42.408Z,98428.69
2023-04-12T07:30:29.700Z,98428.67
2023-04-12T07:33:19.847Z,98427.17
2023-04-12T07:36:07.627Z,98427.98
2023-04-12T07:38:55.660Z,98429.81
2023-04-12T07:41:45.752Z,98427.70
2023-04-12T07:44:34.321Z,98428.80
2023-04-12T07:47:22.375Z,98423.13
2023-04-12T07:50:12.703Z,98421.58
2023-04-12T07:53:23.413Z,98417.52
2023-04-12T07:56:11.005Z,98415.38
2023-04-12T07:58:58.330Z,98420.50
2023-04-12T08:01:45.867Z,98417.80
2023-04-12T08:04:32.991Z,98417.70
2023-04-12T08:07:21.813Z,98417.73
2023-04-12T08:10:09.045Z,98424.09
2023-04-12T08:12:56.765Z,98426.16
2023-04-12T08:15:46.441Z,98423.77
2023-04-12T08:18:33.902Z,98424.48
2023-04-12T08:21:21.941Z,98431.35
2023-04-12T08:24:09.622Z,98432.02
2023-04-12T08:26:57.583Z,98431.20
2023-04-12T08:29:45.169Z,98428.64
2023-04-12T08:32:32.394Z,98425.33
2023-04-12T08:35:20.621Z,98425.30
2023-04-12T08:38:08.076Z,98421.52
2023-04-12T08:40:57.220Z,98421.74
2023-04-12T08:43:45.573Z,98426.79
2023-04-12T08:46:36.647Z,98424.77
2023-04-12T08:49:24.405Z,98421.26
2023-04-12T08:52:13.063Z,98416.81
2023-04-12T08:55:04.866Z,98409.34
2023-04-12T08:57:55.448Z,98409.55
2023-04-12T09:00:44.443Z,98408.44
2023-04-12T09:03:33.682Z,98409.50
2023-04-12T09:06:21.072Z,98411.06
2023-04-12T09:09:08.585Z,98410.14
2023-04-12T09:12:07.148Z,98407.61
2023-04-12T09:15:12.966Z,98405.24
2023-04-12T09:18:08.740Z,98408.83
2023-04-12T09:21:11.300Z,98406.08
2023-04-12T09:24:13.571Z,98403.55
2023-04-12T09:27:06.501Z,98405.39
2023-04-12T09:30:07.480Z,98404.52
2023-04-12T09:32:55.256Z,98401.98
2023-04-12T09:35:42.602Z,98400.91
2023-04-12T09:38:31.556Z,98401.88
2023-04-12T09:41:26.839Z,98406.08
2023-04-12T09:44:31.434Z,98406.83
2023-04-12T09:47:18.600Z,98407.34
2023-04-12T09:50:08.019Z,98401.45
2023-04-12T09:52:56.615Z,98399.98
2023-04-12T09:55:46.192Z,98399.60
2023-04-12T09:58:36.875Z,98399.36
2023-04-12T10:01:24.794Z,98400.55
2023-04-12T10:04:12.407Z,98401.73
2023-04-12T10:07:01.214Z,98401.03
2023-04-12T10:09:48.592Z,98395.73
2023-04-12T10:12:36.677Z,98397.25
2023-04-12T10:15:24.915Z,98395.77
2023-04-12T10:18:19.026Z,98398.31
2023-04-12T10:21:07.120Z,98391.95
2023-04-12T10:23:54.790Z,98389.45
2023-04-12T10:26:43.288Z,98391.70
2023-04-12T10:29:33.796Z,98387.98
2023-04-12T10:32:23.128Z,98388.47
2023-04-12T10:35:11.344Z,98389.66
2023-04-12T10:38:04.752Z,98389.42
2023-04-12T10:41:17.741Z,98388.48
2023-04-12T10:44:24.658Z,98391.71
2023-04-12T10:47:12.218Z,98391.42
2023-04-12T10:50:25.486Z,98385.77
2023-04-12T10:53:21.499Z,98381.73
2023-04-12T10:56:33.560Z,98379.61
2023-04-12T10:59:20.871Z,98379.96
2023-04-12T11:02:11.027Z,98378.70
2023-04-12T11:05:04.809Z,98373.89
2023-04-12T11:08:12.266Z,98370.10
2023-04-12T11:11:04.432Z,98368.67
2023-04-12T11:13:56.640Z,98366.80
2023-04-12T11:17:06.128Z,98367.67
2023-04-12T11:19:56.419Z,98366.49
2023-04-12T11:22:43.885Z,98365.73
2023-04-12T11:25:31.402Z,98364.83
2023-04-12T11:28:28.580Z,98362.91
2023-04-12T11:31:19.664Z,98359.04
2023-04-12T11:34:07.630Z,98356.73
2023-04-12T11:36:55.105Z,98355.05
2023-04-12T11:39:44.556Z,98354.88
2023-04-12T11:42:32.597Z,98351.38
2023-04-12T11:45:21.653Z,98352.19
2023-04-12T11:48:09.019Z,98350.39
2023-04-12T11:51:07.617Z,98354.54
2023-04-12T11:53:58.796Z,98345.96
2023-04-12T11:56:46.575Z,98346.71
2023-04-12T11:59:34.563Z,98342.58
2023-04-12T12:02:24.402Z,98337.83
2023-04-12T12:05:12.926Z,98335.37
2023-04-12T12:08:05.203Z,98333.19
2023-04-12T12:11:07.167Z,98325.84
2023-04-12T12:13:56.402Z,98320.28
2023-04-12T12:16:52.988Z,98318.23
2023-04-12T12:19:43.113Z,98314.73
2023-04-12T12:22:30.292Z,98312.76
2023-04-12T12:25:18.939Z,98305.15
2023-04-12T12:28:12.110Z,98302.17
2023-04-12T12:30:59.700Z,98299.91
2023-04-12T12:33:47.652Z,98296.24
2023-04-12T12:36:38.102Z,98288.76
2023-04-12T12:39:25.642Z,98286.20
2023-04-12T12:42:13.145Z,98284.73
2023-04-12T12:45:00.369Z,98278.93
2023-04-12T12:47:54.372Z,98279.61
2023-04-12T12:50:41.573Z,98271.48
2023-04-12T12:53:29.129Z,98266.73
2023-04-12T12:56:16.443Z,98263.98
2023-04-12T12:59:04.037Z,98258.19
2023-04-12T13:01:51.245Z,98255.04
2023-04-12T13:04:39.518Z,98252.27
2023-04-12T13:07:26.829Z,98246.77
2023-04-12T13:10:14.586Z,98244.09
2023-04-12T13:13:02.433Z,98243.17
2023-04-12T13:15:52.462Z,98240.21
2023-04-12T13:18:39.853Z,98239.36
2023-04-12T13:21:27.611Z,98247.69
2023-04-12T13:24:14.877Z,98243.07
2023-04-12T13:27:02.781Z,98241.89
2023-04-12T13:29:50.422Z,98235.95
2023-04-12T13:32:38.031Z,98231.14
2023-04-12T13:35:25.421Z,98229.20
2023-04-12T13:38:13.251Z,98231.97
2023-04-12T13:41:00.482Z,98223.70
2023-04-12T13:43:48.427Z,98219.79
2023-04-12T13:46:35.894Z,98214.23
2023-04-12T13:49:23.419Z,98215.24
2023-04-12T13:52:11.079Z,98208.23
2023-04-12T13:54:59.214Z,98207.86
2023-04-12T13:57:46.401Z,98205.66
2023-04-12T14:00:34.251Z,98203.82
2023-04-12T14:03:21.792Z,98199.23
2023-04-12T14:06:10.083Z,98198.90
2023-04-12T14:08:57.514Z,98199.14
2023-04-12T14:11:46.560Z,98199.92
2023-04-12T14:14:33.672Z,98202.25
2023-04-12T14:17:21.071Z,98202.21
2023-04-12T14:20:11.861Z,98198.35
2023-04-12T14:22:59.201Z,98197.33
2023-04-12T14:25:46.509Z,98191.25
2023-04-12T14:28:34.780Z,98189.61
2023-04-12T14:31:22.497Z,98188.48
2023-04-12T14:34:10.175Z,98185.95
2023-04-12T14:36:57.540Z,98189.96
2023-04-12T14:39:45.301Z,98189.48
2023-04-12T14:42:32.422Z,98189.16
2023-04-12T14:45:20.338Z,98188.80
2023-04-12T14:48:07.490Z,98185.46
2023-04-12T14:50:55.000Z,98186.68
2023-04-12T14:53:42.594Z,98184.52
2023-04-12T14:56:31.384Z,98183.46
2023-04-12T14:59:19.112Z,98185.65
2023-04-12T15:02:07.660Z,98183.38
2023-04-12T15:04:55.247Z,98183.25
2023-04-12T15:07:42.826Z,98177.11
2023-04-12T15:10:30.172Z,98170.41
2023-04-12T15:13:18.410Z,98169.77
2023-04-12T15:16:08.367Z,98166.73
2023-04-12T15:18:56.429Z,98166.81
2023-04-12T15:21:46.047Z,98166.18
2023-04-12T15:24:34.210Z,98166.91
2023-04-12T15:27:21.308Z,98165.61
2023-04-12T15:30:10.312Z,98161.88
2023-04-12T15:32:57.821Z,98160.01
2023-04-12T15:35:45.684Z,98154.64
2023-04-12T15:38:40.541Z,98153.86
2023-04-12T15:41:34.435Z,98152.19
2023-04-12T15:44:25.685Z,98153.55
2023-04-12T15:47:13.920Z,98154.61
2023-04-12T15:50:01.496Z,98146.90
2023-04-12T15:52:48.926Z,98148.73
2023-04-12T15:55:36.060Z,98140.66
2023-04-12T15:58:24.718Z,98143.34
2023-04-12T16:01:11.953Z,98148.00
2023-04-12T16:04:00.064Z,98149.83
2023-04-12T16:06:47.396Z,98148.89
2023-04-12T16:09:36.287Z,98151.38
2023-04-12T16:12:23.549Z,98150.66
2023-04-12T16:15:11.158Z,98152.02
2023-04-12T16:17:58.826Z,98150.88
2023-04-12T16:20:46.511Z,98148.33
2023-04-12T16:23:35.001Z,98148.38
2023-04-12T16:26:23.170Z,98147.38
2023-04-12T16:29:11.161Z,98141.61
2023-04-12T16:31:58.776Z,98139.12
2023-04-12T16:34:46.294Z,98133.78
2023-04-12T16:37:34.005Z,98136.33
2023-04-12T16:40:21.490Z,98134.41
2023-04-12T16:43:09.855Z,98127.89
2023-04-12T16:45:57.064Z,98128.05
2023-04-12T16:48:44.606Z,98127.10
2023-04-12T16:51:37.264Z,98125.42
2023-04-12T16:54:25.697Z,98126.04
2023-04-12T16:57:12.903Z,98123.95
2023-04-12T17:00:00.717Z,98116.25
2023-04-12T17:02:49.901Z,98112.61
2023-04-12T17:05:39.389Z,98116.98
2023-04-12T17:08:26.754Z,98115.96
2023-04-12T17:11:14.386Z,98114.15
2023-04-12T17:14:02.233Z,98111.80
2023-04-12T17:16:49.926Z,98112.64
2023-04-12T17:19:37.096Z,98115.48
2023-04-12T17:22:24.674Z,98113.26
2023-04-12T17:25:12.672Z,98110.42
2023-04-12T17:28:01.405Z,98116.30
2023-04-12T17:30:48.641Z,98120.79
2023-04-12T17:33:37.436Z,98122.75
2023-04-12T17:36:24.747Z,98123.25
2023-04-12T17:39:12.746Z,98126.13
2023-04-12T17:42:00.620Z,98124.98
2023-04-12T17:44:49.003Z,98126.92
2023-04-12T17:47:37.006Z,98129.12
2023-04-12T17:50:27.088Z,98132.77
2023-04-12T17:53:14.309Z,98130.68
2023-04-12T17:56:02.420Z,98127.24
2023-04-12T17:58:49.533Z,98125.65
2023-04-12T18:01:37.224Z,98127.05
2023-04-12T18:04:26.943Z,98123.70
2023-04-12T18:07:15.673Z,98125.85
2023-04-12T18:10:02.961Z,98126.77
2023-04-12T18:12:50.561Z,98131.78
2023-04-12T18:15:37.734Z,98130.36
2023-04-12T18:18:25.702Z,98131.64
2023-04-12T18:21:14.070Z,98123.33
2023-04-12T18:24:02.532Z,98122.08
2023-04-12T18:26:51.319Z,98120.59
2023-04-12T18:29:39.047Z,98120.27
2023-04-12T18:32:26.625Z,98117.61
2023-04-12T18:35:14.828Z,98116.52
2023-04-12T18:38:02.042Z,98117.58
2023-04-12T18:40:49.770Z,98113.35
2023-04-12T18:43:37.966Z,98107.72
2023-04-12T18:46:29.148Z,98109.82
2023-04-12T18:49:16.289Z,98104.67
2023-04-12T18:52:04.135Z,98104.95
2023-04-12T18:54:51.445Z,98101.21
2023-04-12T18:57:39.153Z,98104.87
2023-04-12T19:00:26.748Z,98101.23
2023-04-12T19:03:15.089Z,98104.67
2023-04-12T19:06:03.814Z,98105.35
2023-04-12T19:08:51.628Z,98103.73
2023-04-12T19:11:39.294Z,98107.84
2023-04-12T19:14:29.845Z,98103.92
2023-04-12T19:17:24.019Z,98106.39
2023-04-12T19:20:12.529Z,98107.44
2023-04-12T19:22:59.736Z,98106.64
2023-04-12T19:25:47.732Z,98107.39
2023-04-12T19:28:35.052Z,98107.69
2023-04-12T19:31:23.215Z,98103.67
2023-04-12T19:34:11.602Z,98105.71
2023-04-12T19:37:00.135Z,98101.89
2023-04-12T19:39:47.383Z,98103.79
2023-04-12T19:42:35.503Z,98098.90
2023-04-12T19:45:23.117Z,98100.83
2023-04-12T19:48:12.935Z,98098.63
2023-04-12T19:51:00.110Z,98092.63
2023-04-12T19:53:51.026Z,98091.02
2023-04-12T19:56:39.066Z,98090.13
2023-04-12T19:59:30.620Z,98089.60
2023-04-12T20:02:19.034Z,98086.20
2023-04-12T20:05:09.925Z,98083.85
2023-04-12T20:07:57.081Z,98081.63
2023-04-12T20:10:45.506Z,98083.83
2023-04-12T20:13:33.560Z,98078.24
2023-04-12T20:16:25.553Z,98075.77
2023-04-12T20:19:12.691Z,98076.54
2023-04-12T20:22:04.053Z,98074.17
2023-04-12T20:24:53.809Z,98076.63
2023-04-12T20:27:46.059Z,98073.62
2023-04-12T20:30:33.912Z,98074.27
2023-04-12T20:33:22.048Z,98074.80
2023-04-12T20:36:09.976Z,98072.77
2023-04-12T20:39:01.426Z,98075.86
2023-04-12T20:41:50.314Z,98076.63
2023-04-12T20:44:38.774Z,98077.27
2023-04-12T20:47:26.806Z,98079.98
2023-04-12T20:50:18.051Z,98075.87
2023-04-12T20:53:05.195Z,98075.22
2023-04-12T20:55:55.442Z,98079.55
2023-04-12T20:58:43.717Z,98075.17
2023-04-12T21:01:31.783Z,98074.61
2023-04-12T21:04:20.605Z,98075.85
2023-04-12T21:07:10.951Z,98076.64
2023-04-12T21:09:58.042Z,98074.95
2023-04-12T21:12:46.883Z,98071.70
2023-04-12T21:15:34.828Z,98076.11
2023-04-12T21:18:22.917Z,98071.94
2023-04-12T21:21:10.261Z,98072.20
2023-04-12T21:23:57.988Z,98072.86
2023-04-12T21:26:55.377Z,98072.84
2023-04-12T21:29:44.366Z,98073.40
2023-04-12T21:32:31.872Z,98066.17
2023-04-12T21:35:22.234Z,98062.10
2023-04-12T21:38:09.379Z,98056.42
2023-04-12T21:41:07.635Z,98052.51
2023-04-12T21:43:54.958Z,98051.71
2023-04-12T21:46:42.447Z,98053.36
2023-04-12T21:49:30.115Z,98048.80
2023-04-12T21:52:18.186Z,98050.19
2023-04-12T21:55:05.879Z,98050.98
2023-04-12T21:57:53.571Z,98047.80
2023-04-12T22:00:42.064Z,98040.49
2023-04-12T22:03:29.992Z,98036.05
2023-04-12T22:06:18.981Z,98034.66
2023-04-12T22:09:06.669Z,98034.52
2023-04-12T22:11:54.245Z,98031.99
2023-04-12T22:14:46.070Z,98031.02
2023-04-12T22:17:33.855Z,98029.43
2023-04-12T22:20:21.536Z,98035.80
2023-04-12T22:23:08.748Z,98034.30
2023-04-12T22:25:57.906Z,98032.70
2023-04-12T22:28:48.587Z,98034.21
2023-04-12T22:31:38.361Z,98034.52
2023-04-12T22:34:26.993Z,98033.31
2023-04-12T22:37:14.794Z,98027.50
2023-04-12T22:40:04.358Z,98025.02
2023-04-12T22:42:51.790Z,98018.21
2023-04-12T22:45:40.684Z,98018.26
2023-04-12T22:48:31.631Z,98010.85
2023-04-12T22:51:18.903Z,98006.89
2023-04-12T22:54:08.791Z,98001.84
2023-04-12T22:56:56.079Z,97996.58
2023-04-12T22:59:43.447Z,97995.47
2023-04-12T23:02:30.910Z,97987.98
2023-04-12T23:05:19.716Z,97984.77
2023-04-12T23:08:07.866Z,97982.09
2023-04-12T23:11:01.640Z,97981.10
2023-04-12T23:13:48.942Z,97980.77
2023-04-12T23:16:46.459Z,97977.77
2023-04-12T23:19:33.857Z,97976.45
2023-04-12T23:22:55.309Z,97968.80
2023-04-12T23:25:45.186Z,97964.02
2023-04-12T23:28:34.030Z,97963.23
2023-04-12T23:31:21.222Z,97960.71
2023-04-12T23:34:09.097Z,97957.85
2023-04-12T23:36:58.918Z,97957.41
2023-04-12T23:39:46.567Z,97957.73
2023-04-12T23:42:35.072Z,97956.14
2023-04-12T23:45:27.646Z,97943.61
2023-04-12T23:48:16.272Z,97940.64
2023-04-12T23:51:04.215Z,97935.17
2023-04-12T23:53:51.630Z,97939.30
2023-04-12T23:56:39.111Z,97936.96
2023-04-12T23:59:27.663Z,97932.31
